sensor_id;sensor_type;location;lat;lon;timestamp;P1;durP1;ratioP1;P2;durP2;ratioP2
21330;SDS011;10824;51.632;4.950;2023-05-07T00:00:47;3.70;;;2.13;;
21330;SDS011;10824;51.632;4.950;2023-05-07T00:03:14;3.67;;;2.10;;
21330;SDS011;10824;51.632;4.950;2023-05-07T00:05:42;4.43;;;2.33;;
21330;SDS011;10824;51.632;4.950;2023-05-07T00:08:09;5.00;;;2.45;;
21330;SDS011;10824;51.632;4.950;2023-05-07T00:10:36;3.33;;;2.15;;
21330;SDS011;10824;51.632;4.950;2023-05-07T00:13:03;4.57;;;2.22;;
21330;SDS011;10824;51.632;4.950;2023-05-07T00:15:30;7.47;;;2.65;;
21330;SDS011;10824;51.632;4.950;2023-05-07T00:17:58;3.53;;;2.33;;
21330;SDS011;10824;51.632;4.950;2023-05-07T00:20:25;4.05;;;2.17;;
21330;SDS011;10824;51.632;4.950;2023-05-07T00:22:53;7.68;;;2.53;;
21330;SDS011;10824;51.632;4.950;2023-05-07T00:25:20;5.60;;;2.40;;
21330;SDS011;10824;51.632;4.950;2023-05-07T00:27:47;5.50;;;2.63;;
21330;SDS011;10824;51.632;4.950;2023-05-07T00:30:14;2.80;;;2.10;;
21330;SDS011;10824;51.632;4.950;2023-05-07T00:32:42;4.78;;;2.55;;
21330;SDS011;10824;51.632;4.950;2023-05-07T00:35:12;3.17;;;2.10;;
21330;SDS011;10824;51.632;4.950;2023-05-07T00:37:39;3.88;;;2.25;;
21330;SDS011;10824;51.632;4.950;2023-05-07T00:40:06;5.72;;;1.88;;
21330;SDS011;10824;51.632;4.950;2023-05-07T00:42:35;3.85;;;2.33;;
21330;SDS011;10824;51.632;4.950;2023-05-07T00:45:03;4.03;;;2.28;;
21330;SDS011;10824;51.632;4.950;2023-05-07T00:47:30;2.75;;;2.13;;
21330;SDS011;10824;51.632;4.950;2023-05-07T00:49:58;3.97;;;2.53;;
21330;SDS011;10824;51.632;4.950;2023-05-07T00:52:26;5.13;;;2.65;;
21330;SDS011;10824;51.632;4.950;2023-05-07T00:54:54;3.85;;;2.10;;
21330;SDS011;10824;51.632;4.950;2023-05-07T00:57:21;2.60;;;2.20;;
21330;SDS011;10824;51.632;4.950;2023-05-07T00:59:50;3.58;;;2.22;;
21330;SDS011;10824;51.632;4.950;2023-05-07T01:02:18;5.80;;;2.40;;
21330;SDS011;10824;51.632;4.950;2023-05-07T01:04:45;4.03;;;1.88;;
21330;SDS011;10824;51.632;4.950;2023-05-07T01:07:13;4.32;;;2.13;;
21330;SDS011;10824;51.632;4.950;2023-05-07T01:09:40;3.17;;;2.03;;
21330;SDS011;10824;51.632;4.950;2023-05-07T01:12:07;3.33;;;2.10;;
21330;SDS011;10824;51.632;4.950;2023-05-07T01:14:35;4.15;;;2.58;;
21330;SDS011;10824;51.632;4.950;2023-05-07T01:17:02;3.17;;;2.03;;
21330;SDS011;10824;51.632;4.950;2023-05-07T01:19:29;1.80;;;1.60;;
21330;SDS011;10824;51.632;4.950;2023-05-07T01:22:04;6.40;;;1.90;;
21330;SDS011;10824;51.632;4.950;2023-05-07T01:24:44;2.63;;;1.88;;
21330;SDS011;10824;51.632;4.950;2023-05-07T01:27:14;3.45;;;2.40;;
21330;SDS011;10824;51.632;4.950;2023-05-07T01:29:42;3.10;;;2.75;;
21330;SDS011;10824;51.632;4.950;2023-05-07T01:32:09;2.63;;;2.00;;
21330;SDS011;10824;51.632;4.950;2023-05-07T01:34:38;5.05;;;2.05;;
21330;SDS011;10824;51.632;4.950;2023-05-07T01:37:06;2.80;;;1.90;;
21330;SDS011;10824;51.632;4.950;2023-05-07T01:39:33;3.45;;;2.03;;
21330;SDS011;10824;51.632;4.950;2023-05-07T01:42:00;2.58;;;1.95;;
21330;SDS011;10824;51.632;4.950;2023-05-07T01:44:28;4.65;;;2.40;;
21330;SDS011;10824;51.632;4.950;2023-05-07T01:46:55;6.15;;;2.17;;
21330;SDS011;10824;51.632;4.950;2023-05-07T01:49:23;4.75;;;2.25;;
21330;SDS011;10824;51.632;4.950;2023-05-07T01:51:50;4.13;;;1.90;;
21330;SDS011;10824;51.632;4.950;2023-05-07T01:54:18;4.55;;;1.90;;
21330;SDS011;10824;51.632;4.950;2023-05-07T01:56:47;3.47;;;2.20;;
21330;SDS011;10824;51.632;4.950;2023-05-07T01:59:15;4.32;;;2.08;;
21330;SDS011;10824;51.632;4.950;2023-05-07T02:01:42;3.50;;;2.13;;
21330;SDS011;10824;51.632;4.950;2023-05-07T02:04:10;6.90;;;2.40;;
21330;SDS011;10824;51.632;4.950;2023-05-07T02:06:38;5.50;;;2.53;;
21330;SDS011;10824;51.632;4.950;2023-05-07T02:09:07;3.33;;;2.30;;
21330;SDS011;10824;51.632;4.950;2023-05-07T02:11:36;4.47;;;2.35;;
21330;SDS011;10824;51.632;4.950;2023-05-07T02:14:04;3.08;;;2.08;;
21330;SDS011;10824;51.632;4.950;2023-05-07T02:16:31;5.03;;;3.05;;
21330;SDS011;10824;51.632;4.950;2023-05-07T02:18:58;4.18;;;2.45;;
21330;SDS011;10824;51.632;4.950;2023-05-07T02:21:25;6.07;;;2.63;;
21330;SDS011;10824;51.632;4.950;2023-05-07T02:23:55;4.78;;;2.40;;
21330;SDS011;10824;51.632;4.950;2023-05-07T02:26:22;4.90;;;2.55;;
21330;SDS011;10824;51.632;4.950;2023-05-07T02:28:49;5.75;;;2.50;;
21330;SDS011;10824;51.632;4.950;2023-05-07T02:31:17;6.88;;;2.90;;
21330;SDS011;10824;51.632;4.950;2023-05-07T02:33:46;3.92;;;2.28;;
21330;SDS011;10824;51.632;4.950;2023-05-07T02:36:14;4.22;;;2.00;;
21330;SDS011;10824;51.632;4.950;2023-05-07T02:38:56;4.53;;;2.75;;
21330;SDS011;10824;51.632;4.950;2023-05-07T02:41:23;4.18;;;2.70;;
21330;SDS011;10824;51.632;4.950;2023-05-07T02:43:50;4.13;;;2.60;;
21330;SDS011;10824;51.632;4.950;2023-05-07T02:46:17;6.82;;;2.70;;
21330;SDS011;10824;51.632;4.950;2023-05-07T02:48:50;4.40;;;2.80;;
21330;SDS011;10824;51.632;4.950;2023-05-07T02:51:19;3.33;;;2.53;;
21330;SDS011;10824;51.632;4.950;2023-05-07T02:53:52;4.68;;;2.40;;
21330;SDS011;10824;51.632;4.950;2023-05-07T02:56:19;4.25;;;2.53;;
21330;SDS011;10824;51.632;4.950;2023-05-07T02:58:47;9.18;;;3.60;;
21330;SDS011;10824;51.632;4.950;2023-05-07T03:01:16;7.82;;;3.25;;
21330;SDS011;10824;51.632;4.950;2023-05-07T03:03:50;5.25;;;2.83;;
21330;SDS011;10824;51.632;4.950;2023-05-07T03:06:17;4.72;;;2.28;;
21330;SDS011;10824;51.632;4.950;2023-05-07T03:08:46;4.90;;;2.40;;
21330;SDS011;10824;51.632;4.950;2023-05-07T03:11:13;4.57;;;3.08;;
21330;SDS011;10824;51.632;4.950;2023-05-07T03:13:41;3.75;;;2.80;;
21330;SDS011;10824;51.632;4.950;2023-05-07T03:16:07;3.13;;;2.38;;
21330;SDS011;10824;51.632;4.950;2023-05-07T03:18:35;7.45;;;2.80;;
21330;SDS011;10824;51.632;4.950;2023-05-07T03:21:02;6.50;;;2.53;;
21330;SDS011;10824;51.632;4.950;2023-05-07T03:23:29;4.20;;;2.80;;
21330;SDS011;10824;51.632;4.950;2023-05-07T03:25:56;5.45;;;3.85;;
21330;SDS011;10824;51.632;4.950;2023-05-07T03:28:23;3.15;;;2.33;;
21330;SDS011;10824;51.632;4.950;2023-05-07T03:30:55;4.57;;;2.67;;
21330;SDS011;10824;51.632;4.950;2023-05-07T03:33:22;5.47;;;2.78;;
21330;SDS011;10824;51.632;4.950;2023-05-07T03:35:50;4.32;;;2.85;;
21330;SDS011;10824;51.632;4.950;2023-05-07T03:38:21;4.60;;;3.13;;
21330;SDS011;10824;51.632;4.950;2023-05-07T03:40:48;4.47;;;2.80;;
21330;SDS011;10824;51.632;4.950;2023-05-07T03:43:16;5.05;;;3.15;;
21330;SDS011;10824;51.632;4.950;2023-05-07T03:45:48;6.50;;;3.50;;
21330;SDS011;10824;51.632;4.950;2023-05-07T03:48:21;3.67;;;2.60;;
21330;SDS011;10824;51.632;4.950;2023-05-07T03:50:51;5.63;;;3.13;;
21330;SDS011;10824;51.632;4.950;2023-05-07T03:53:19;5.20;;;3.05;;
21330;SDS011;10824;51.632;4.950;2023-05-07T03:55:47;6.55;;;3.28;;
21330;SDS011;10824;51.632;4.950;2023-05-07T03:58:14;6.03;;;3.33;;
21330;SDS011;10824;51.632;4.950;2023-05-07T04:00:41;4.35;;;3.00;;
21330;SDS011;10824;51.632;4.950;2023-05-07T04:03:18;3.33;;;2.75;;
21330;SDS011;10824;51.632;4.950;2023-05-07T04:05:45;8.93;;;4.03;;
21330;SDS011;10824;51.632;4.950;2023-05-07T04:08:13;4.53;;;2.70;;
21330;SDS011;10824;51.632;4.950;2023-05-07T04:10:45;4.88;;;2.80;;
21330;SDS011;10824;51.632;4.950;2023-05-07T04:13:12;4.53;;;2.63;;
21330;SDS011;10824;51.632;4.950;2023-05-07T04:15:41;5.63;;;2.90;;
21330;SDS011;10824;51.632;4.950;2023-05-07T04:18:10;6.97;;;3.50;;
21330;SDS011;10824;51.632;4.950;2023-05-07T04:20:39;6.82;;;2.95;;
21330;SDS011;10824;51.632;4.950;2023-05-07T04:23:10;4.15;;;2.85;;
21330;SDS011;10824;51.632;4.950;2023-05-07T04:25:38;7.78;;;3.70;;
21330;SDS011;10824;51.632;4.950;2023-05-07T04:28:20;8.68;;;3.25;;
21330;SDS011;10824;51.632;4.950;2023-05-07T04:30:47;7.80;;;3.97;;
21330;SDS011;10824;51.632;4.950;2023-05-07T04:33:14;5.97;;;3.70;;
21330;SDS011;10824;51.632;4.950;2023-05-07T04:35:46;9.00;;;3.53;;
21330;SDS011;10824;51.632;4.950;2023-05-07T04:38:13;6.10;;;3.58;;
21330;SDS011;10824;51.632;4.950;2023-05-07T04:40:41;5.85;;;3.53;;
21330;SDS011;10824;51.632;4.950;2023-05-07T04:43:11;5.68;;;3.60;;
21330;SDS011;10824;51.632;4.950;2023-05-07T04:45:44;7.35;;;3.58;;
21330;SDS011;10824;51.632;4.950;2023-05-07T04:48:12;7.55;;;3.08;;
21330;SDS011;10824;51.632;4.950;2023-05-07T04:50:41;6.93;;;3.65;;
21330;SDS011;10824;51.632;4.950;2023-05-07T04:53:08;4.88;;;3.42;;
21330;SDS011;10824;51.632;4.950;2023-05-07T04:55:36;6.65;;;3.65;;
21330;SDS011;10824;51.632;4.950;2023-05-07T04:58:04;4.85;;;3.35;;
21330;SDS011;10824;51.632;4.950;2023-05-07T05:00:36;5.60;;;3.53;;
21330;SDS011;10824;51.632;4.950;2023-05-07T05:03:08;6.82;;;3.90;;
21330;SDS011;10824;51.632;4.950;2023-05-07T05:05:37;9.63;;;3.47;;
21330;SDS011;10824;51.632;4.950;2023-05-07T05:08:05;6.15;;;2.95;;
21330;SDS011;10824;51.632;4.950;2023-05-07T05:10:35;5.07;;;3.22;;
21330;SDS011;10824;51.632;4.950;2023-05-07T05:13:05;7.32;;;3.38;;
21330;SDS011;10824;51.632;4.950;2023-05-07T05:15:33;6.50;;;4.00;;
21330;SDS011;10824;51.632;4.950;2023-05-07T05:18:02;5.03;;;3.22;;
21330;SDS011;10824;51.632;4.950;2023-05-07T05:20:30;6.85;;;3.60;;
21330;SDS011;10824;51.632;4.950;2023-05-07T05:22:57;6.35;;;4.00;;
21330;SDS011;10824;51.632;4.950;2023-05-07T05:25:24;6.43;;;3.78;;
21330;SDS011;10824;51.632;4.950;2023-05-07T05:27:51;8.45;;;3.63;;
21330;SDS011;10824;51.632;4.950;2023-05-07T05:30:18;7.78;;;5.03;;
21330;SDS011;10824;51.632;4.950;2023-05-07T05:32:47;6.57;;;3.53;;
21330;SDS011;10824;51.632;4.950;2023-05-07T05:35:15;6.95;;;4.03;;
21330;SDS011;10824;51.632;4.950;2023-05-07T05:37:42;5.65;;;3.90;;
21330;SDS011;10824;51.632;4.950;2023-05-07T05:40:11;7.05;;;4.18;;
21330;SDS011;10824;51.632;4.950;2023-05-07T05:42:38;7.53;;;3.80;;
21330;SDS011;10824;51.632;4.950;2023-05-07T05:45:06;6.35;;;3.97;;
21330;SDS011;10824;51.632;4.950;2023-05-07T05:47:34;9.07;;;4.22;;
21330;SDS011;10824;51.632;4.950;2023-05-07T05:50:01;8.07;;;3.78;;
21330;SDS011;10824;51.632;4.950;2023-05-07T05:52:29;7.35;;;4.75;;
21330;SDS011;10824;51.632;4.950;2023-05-07T05:54:56;7.70;;;4.05;;
21330;SDS011;10824;51.632;4.950;2023-05-07T05:57:25;8.05;;;4.60;;
21330;SDS011;10824;51.632;4.950;2023-05-07T05:59:55;8.70;;;4.47;;
21330;SDS011;10824;51.632;4.950;2023-05-07T06:02:23;8.05;;;4.40;;
21330;SDS011;10824;51.632;4.950;2023-05-07T06:04:50;8.85;;;5.38;;
21330;SDS011;10824;51.632;4.950;2023-05-07T06:07:19;9.48;;;4.93;;
21330;SDS011;10824;51.632;4.950;2023-05-07T06:09:47;11.65;;;4.93;;
21330;SDS011;10824;51.632;4.950;2023-05-07T06:12:14;6.68;;;4.93;;
21330;SDS011;10824;51.632;4.950;2023-05-07T06:14:44;9.25;;;4.75;;
21330;SDS011;10824;51.632;4.950;2023-05-07T06:17:11;8.80;;;5.13;;
21330;SDS011;10824;51.632;4.950;2023-05-07T06:19:38;12.02;;;5.70;;
21330;SDS011;10824;51.632;4.950;2023-05-07T06:22:08;10.13;;;5.50;;
21330;SDS011;10824;51.632;4.950;2023-05-07T06:24:35;8.82;;;4.90;;
21330;SDS011;10824;51.632;4.950;2023-05-07T06:27:04;12.45;;;5.53;;
21330;SDS011;10824;51.632;4.950;2023-05-07T06:29:32;12.45;;;5.40;;
21330;SDS011;10824;51.632;4.950;2023-05-07T06:32:08;8.32;;;4.75;;
21330;SDS011;10824;51.632;4.950;2023-05-07T06:34:38;11.65;;;6.50;;
21330;SDS011;10824;51.632;4.950;2023-05-07T06:37:06;10.40;;;5.38;;
21330;SDS011;10824;51.632;4.950;2023-05-07T06:39:52;10.00;;;5.72;;
21330;SDS011;10824;51.632;4.950;2023-05-07T06:42:19;10.00;;;4.95;;
21330;SDS011;10824;51.632;4.950;2023-05-07T06:44:47;10.38;;;6.18;;
21330;SDS011;10824;51.632;4.950;2023-05-07T06:47:16;11.43;;;6.10;;
21330;SDS011;10824;51.632;4.950;2023-05-07T06:49:48;10.73;;;6.32;;
21330;SDS011;10824;51.632;4.950;2023-05-07T06:52:17;11.73;;;6.18;;
21330;SDS011;10824;51.632;4.950;2023-05-07T06:54:46;12.32;;;5.97;;
21330;SDS011;10824;51.632;4.950;2023-05-07T06:57:16;10.48;;;6.13;;
21330;SDS011;10824;51.632;4.950;2023-05-07T06:59:43;10.82;;;5.85;;
21330;SDS011;10824;51.632;4.950;2023-05-07T07:02:11;11.68;;;6.80;;
21330;SDS011;10824;51.632;4.950;2023-05-07T07:04:38;10.80;;;6.40;;
21330;SDS011;10824;51.632;4.950;2023-05-07T07:07:09;11.13;;;5.80;;
21330;SDS011;10824;51.632;4.950;2023-05-07T07:09:37;14.63;;;7.05;;
21330;SDS011;10824;51.632;4.950;2023-05-07T07:12:06;12.57;;;6.13;;
21330;SDS011;10824;51.632;4.950;2023-05-07T07:14:36;12.98;;;7.22;;
21330;SDS011;10824;51.632;4.950;2023-05-07T07:17:03;13.02;;;6.88;;
21330;SDS011;10824;51.632;4.950;2023-05-07T07:19:32;12.75;;;6.05;;
21330;SDS011;10824;51.632;4.950;2023-05-07T07:22:01;12.60;;;7.47;;
21330;SDS011;10824;51.632;4.950;2023-05-07T07:24:29;14.68;;;7.30;;
21330;SDS011;10824;51.632;4.950;2023-05-07T07:26:59;13.80;;;7.85;;
21330;SDS011;10824;51.632;4.950;2023-05-07T07:29:27;12.80;;;6.63;;
21330;SDS011;10824;51.632;4.950;2023-05-07T07:31:54;10.98;;;6.22;;
21330;SDS011;10824;51.632;4.950;2023-05-07T07:34:22;11.70;;;6.22;;
21330;SDS011;10824;51.632;4.950;2023-05-07T07:36:49;13.13;;;6.03;;
21330;SDS011;10824;51.632;4.950;2023-05-07T07:39:18;15.65;;;7.38;;
21330;SDS011;10824;51.632;4.950;2023-05-07T07:41:48;12.02;;;6.47;;
21330;SDS011;10824;51.632;4.950;2023-05-07T07:44:17;10.95;;;5.78;;
21330;SDS011;10824;51.632;4.950;2023-05-07T07:46:49;11.65;;;5.90;;
21330;SDS011;10824;51.632;4.950;2023-05-07T07:49:18;13.45;;;6.68;;
21330;SDS011;10824;51.632;4.950;2023-05-07T07:51:46;12.30;;;5.88;;
21330;SDS011;10824;51.632;4.950;2023-05-07T07:54:13;13.75;;;7.68;;
21330;SDS011;10824;51.632;4.950;2023-05-07T07:56:40;10.35;;;5.97;;
21330;SDS011;10824;51.632;4.950;2023-05-07T07:59:09;9.20;;;5.65;;
21330;SDS011;10824;51.632;4.950;2023-05-07T08:01:39;12.15;;;6.80;;
21330;SDS011;10824;51.632;4.950;2023-05-07T08:04:06;10.23;;;5.40;;
21330;SDS011;10824;51.632;4.950;2023-05-07T08:06:37;10.25;;;5.35;;
21330;SDS011;10824;51.632;4.950;2023-05-07T08:09:07;11.55;;;5.97;;
21330;SDS011;10824;51.632;4.950;2023-05-07T08:11:35;8.07;;;5.18;;
21330;SDS011;10824;51.632;4.950;2023-05-07T08:14:03;13.48;;;6.43;;
21330;SDS011;10824;51.632;4.950;2023-05-07T08:16:30;9.32;;;5.60;;
21330;SDS011;10824;51.632;4.950;2023-05-07T08:18:59;10.45;;;6.43;;
21330;SDS011;10824;51.632;4.950;2023-05-07T08:21:26;12.77;;;6.70;;
21330;SDS011;10824;51.632;4.950;2023-05-07T08:23:53;10.13;;;5.88;;
21330;SDS011;10824;51.632;4.950;2023-05-07T08:26:20;10.93;;;6.50;;
21330;SDS011;10824;51.632;4.950;2023-05-07T08:28:47;11.38;;;6.03;;
21330;SDS011;10824;51.632;4.950;2023-05-07T08:31:14;11.18;;;6.15;;
21330;SDS011;10824;51.632;4.950;2023-05-07T08:33:44;10.50;;;5.72;;
21330;SDS011;10824;51.632;4.950;2023-05-07T08:36:11;10.02;;;5.30;;
21330;SDS011;10824;51.632;4.950;2023-05-07T08:38:38;10.20;;;5.80;;
21330;SDS011;10824;51.632;4.950;2023-05-07T08:41:08;9.40;;;5.60;;
21330;SDS011;10824;51.632;4.950;2023-05-07T08:43:38;9.65;;;5.97;;
21330;SDS011;10824;51.632;4.950;2023-05-07T08:46:09;8.00;;;5.13;;
21330;SDS011;10824;51.632;4.950;2023-05-07T08:48:41;10.13;;;5.32;;
21330;SDS011;10824;51.632;4.950;2023-05-07T08:51:12;9.05;;;5.05;;
21330;SDS011;10824;51.632;4.950;2023-05-07T08:53:40;7.05;;;4.68;;
21330;SDS011;10824;51.632;4.950;2023-05-07T08:56:11;11.83;;;5.70;;
21330;SDS011;10824;51.632;4.950;2023-05-07T08:58:39;7.85;;;4.75;;
21330;SDS011;10824;51.632;4.950;2023-05-07T09:01:07;8.88;;;4.93;;
21330;SDS011;10824;51.632;4.950;2023-05-07T09:03:37;7.82;;;4.50;;
21330;SDS011;10824;51.632;4.950;2023-05-07T09:06:06;12.57;;;4.45;;
21330;SDS011;10824;51.632;4.950;2023-05-07T09:08:33;9.02;;;5.28;;
21330;SDS011;10824;51.632;4.950;2023-05-07T09:11:03;9.18;;;4.65;;
21330;SDS011;10824;51.632;4.950;2023-05-07T09:13:32;8.38;;;5.13;;
21330;SDS011;10824;51.632;4.950;2023-05-07T09:16:10;10.45;;;4.43;;
21330;SDS011;10824;51.632;4.950;2023-05-07T09:18:44;7.57;;;4.13;;
21330;SDS011;10824;51.632;4.950;2023-05-07T09:21:16;7.35;;;4.47;;
21330;SDS011;10824;51.632;4.950;2023-05-07T09:23:50;9.10;;;4.32;;
21330;SDS011;10824;51.632;4.950;2023-05-07T09:26:21;11.02;;;5.18;;
21330;SDS011;10824;51.632;4.950;2023-05-07T09:28:49;7.40;;;4.00;;
21330;SDS011;10824;51.632;4.950;2023-05-07T09:31:16;5.22;;;3.42;;
21330;SDS011;10824;51.632;4.950;2023-05-07T09:33:47;7.15;;;3.42;;
21330;SDS011;10824;51.632;4.950;2023-05-07T09:36:15;6.43;;;3.65;;
21330;SDS011;10824;51.632;4.950;2023-05-07T09:38:45;8.77;;;4.03;;
21330;SDS011;10824;51.632;4.950;2023-05-07T09:41:12;8.98;;;3.88;;
21330;SDS011;10824;51.632;4.950;2023-05-07T09:43:57;6.47;;;4.00;;
21330;SDS011;10824;51.632;4.950;2023-05-07T09:46:30;5.43;;;3.50;;
21330;SDS011;10824;51.632;4.950;2023-05-07T09:49:11;8.82;;;3.83;;
21330;SDS011;10824;51.632;4.950;2023-05-07T09:51:51;7.43;;;3.95;;
21330;SDS011;10824;51.632;4.950;2023-05-07T09:54:22;4.75;;;3.30;;
21330;SDS011;10824;51.632;4.950;2023-05-07T09:56:52;5.30;;;3.25;;
21330;SDS011;10824;51.632;4.950;2023-05-07T09:59:25;8.43;;;3.95;;
21330;SDS011;10824;51.632;4.950;2023-05-07T10:01:59;6.88;;;3.10;;
21330;SDS011;10824;51.632;4.950;2023-05-07T10:04:34;5.32;;;2.80;;
21330;SDS011;10824;51.632;4.950;2023-05-07T10:07:04;7.85;;;3.72;;
21330;SDS011;10824;51.632;4.950;2023-05-07T10:09:32;7.43;;;3.20;;
21330;SDS011;10824;51.632;4.950;2023-05-07T10:12:00;5.32;;;3.67;;
21330;SDS011;10824;51.632;4.950;2023-05-07T10:14:28;6.05;;;3.90;;
21330;SDS011;10824;51.632;4.950;2023-05-07T10:16:56;7.45;;;3.40;;
21330;SDS011;10824;51.632;4.950;2023-05-07T10:19:25;7.20;;;3.53;;
21330;SDS011;10824;51.632;4.950;2023-05-07T10:21:56;4.47;;;2.88;;
21330;SDS011;10824;51.632;4.950;2023-05-07T10:24:34;7.50;;;3.45;;
21330;SDS011;10824;51.632;4.950;2023-05-07T10:27:12;9.55;;;4.43;;
21330;SDS011;10824;51.632;4.950;2023-05-07T10:29:52;5.65;;;3.38;;
21330;SDS011;10824;51.632;4.950;2023-05-07T10:35:25;5.88;;;3.65;;
21330;SDS011;10824;51.632;4.950;2023-05-07T10:37:56;6.70;;;3.72;;
21330;SDS011;10824;51.632;4.950;2023-05-07T10:40:26;8.93;;;4.03;;
21330;SDS011;10824;51.632;4.950;2023-05-07T10:43:01;6.78;;;3.58;;
21330;SDS011;10824;51.632;4.950;2023-05-07T10:45:41;8.02;;;4.25;;
21330;SDS011;10824;51.632;4.950;2023-05-07T10:48:10;8.25;;;4.53;;
21330;SDS011;10824;51.632;4.950;2023-05-07T10:50:52;6.97;;;3.53;;
21330;SDS011;10824;51.632;4.950;2023-05-07T10:56:42;10.57;;;5.05;;
21330;SDS011;10824;51.632;4.950;2023-05-07T10:59:31;12.13;;;5.63;;
21330;SDS011;10824;51.632;4.950;2023-05-07T11:02:16;6.45;;;3.58;;
21330;SDS011;10824;51.632;4.950;2023-05-07T11:08:22;7.15;;;3.67;;
21330;SDS011;10824;51.632;4.950;2023-05-07T11:11:04;6.20;;;3.80;;
21330;SDS011;10824;51.632;4.950;2023-05-07T11:13:50;7.30;;;4.20;;
21330;SDS011;10824;51.632;4.950;2023-05-07T11:16:32;6.15;;;3.58;;
21330;SDS011;10824;51.632;4.950;2023-05-07T11:22:37;10.48;;;5.00;;
21330;SDS011;10824;51.632;4.950;2023-05-07T11:25:24;6.63;;;3.85;;
21330;SDS011;10824;51.632;4.950;2023-05-07T11:28:14;6.45;;;4.32;;
21330;SDS011;10824;51.632;4.950;2023-05-07T11:30:49;6.60;;;3.95;;
21330;SDS011;10824;51.632;4.950;2023-05-07T11:33:18;7.95;;;3.88;;
21330;SDS011;10824;51.632;4.950;2023-05-07T11:35:52;5.57;;;3.15;;
21330;SDS011;10824;51.632;4.950;2023-05-07T11:38:23;7.65;;;3.72;;
21330;SDS011;10824;51.632;4.950;2023-05-07T11:40:57;6.43;;;3.47;;
21330;SDS011;10824;51.632;4.950;2023-05-07T11:43:27;6.43;;;3.55;;
21330;SDS011;10824;51.632;4.950;2023-05-07T11:45:54;6.55;;;3.47;;
21330;SDS011;10824;51.632;4.950;2023-05-07T11:48:21;4.65;;;2.60;;
21330;SDS011;10824;51.632;4.950;2023-05-07T11:50:52;6.65;;;2.60;;
21330;SDS011;10824;51.632;4.950;2023-05-07T11:53:26;4.55;;;2.70;;
21330;SDS011;10824;51.632;4.950;2023-05-07T11:55:57;3.35;;;2.13;;
21330;SDS011;10824;51.632;4.950;2023-05-07T11:58:24;4.20;;;2.88;;
21330;SDS011;10824;51.632;4.950;2023-05-07T12:00:52;5.95;;;3.45;;
21330;SDS011;10824;51.632;4.950;2023-05-07T12:03:20;7.72;;;3.30;;
21330;SDS011;10824;51.632;4.950;2023-05-07T12:05:47;5.43;;;2.72;;
21330;SDS011;10824;51.632;4.950;2023-05-07T12:08:15;7.15;;;3.55;;
21330;SDS011;10824;51.632;4.950;2023-05-07T12:10:43;5.18;;;3.10;;
21330;SDS011;10824;51.632;4.950;2023-05-07T12:13:17;7.60;;;3.47;;
21330;SDS011;10824;51.632;4.950;2023-05-07T12:15:45;6.43;;;3.78;;
21330;SDS011;10824;51.632;4.950;2023-05-07T12:18:12;9.27;;;4.40;;
21330;SDS011;10824;51.632;4.950;2023-05-07T12:20:41;5.05;;;3.20;;
21330;SDS011;10824;51.632;4.950;2023-05-07T12:23:09;5.38;;;3.28;;
21330;SDS011;10824;51.632;4.950;2023-05-07T12:25:40;7.18;;;2.97;;
21330;SDS011;10824;51.632;4.950;2023-05-07T12:28:15;5.57;;;3.40;;
21330;SDS011;10824;51.632;4.950;2023-05-07T12:30:43;7.20;;;2.97;;
21330;SDS011;10824;51.632;4.950;2023-05-07T12:33:15;5.03;;;3.38;;
21330;SDS011;10824;51.632;4.950;2023-05-07T12:38:11;9.65;;;3.60;;
21330;SDS011;10824;51.632;4.950;2023-05-07T12:40:43;5.82;;;3.35;;
21330;SDS011;10824;51.632;4.950;2023-05-07T12:43:20;4.30;;;2.92;;
21330;SDS011;10824;51.632;4.950;2023-05-07T12:45:51;7.13;;;3.38;;
21330;SDS011;10824;51.632;4.950;2023-05-07T12:48:21;5.65;;;3.28;;
21330;SDS011;10824;51.632;4.950;2023-05-07T12:50:50;11.20;;;3.70;;
21330;SDS011;10824;51.632;4.950;2023-05-07T12:53:19;7.32;;;3.40;;
21330;SDS011;10824;51.632;4.950;2023-05-07T12:55:48;7.82;;;3.08;;
21330;SDS011;10824;51.632;4.950;2023-05-07T13:00:44;5.68;;;3.17;;
21330;SDS011;10824;51.632;4.950;2023-05-07T13:03:25;6.07;;;3.03;;
21330;SDS011;10824;51.632;4.950;2023-05-07T13:06:01;6.38;;;3.00;;
21330;SDS011;10824;51.632;4.950;2023-05-07T13:08:30;5.45;;;2.88;;
21330;SDS011;10824;51.632;4.950;2023-05-07T13:11:04;3.35;;;2.33;;
21330;SDS011;10824;51.632;4.950;2023-05-07T13:13:32;5.25;;;2.25;;
21330;SDS011;10824;51.632;4.950;2023-05-07T13:16:01;7.25;;;2.88;;
21330;SDS011;10824;51.632;4.950;2023-05-07T13:18:32;4.60;;;2.70;;
21330;SDS011;10824;51.632;4.950;2023-05-07T13:21:00;9.63;;;3.17;;
21330;SDS011;10824;51.632;4.950;2023-05-07T13:23:28;5.93;;;2.63;;
21330;SDS011;10824;51.632;4.950;2023-05-07T13:25:55;5.15;;;2.33;;
21330;SDS011;10824;51.632;4.950;2023-05-07T13:28:22;4.88;;;3.17;;
21330;SDS011;10824;51.632;4.950;2023-05-07T13:30:52;8.15;;;3.53;;
21330;SDS011;10824;51.632;4.950;2023-05-07T13:33:21;6.68;;;3.63;;
21330;SDS011;10824;51.632;4.950;2023-05-07T13:35:50;7.50;;;3.22;;
21330;SDS011;10824;51.632;4.950;2023-05-07T13:38:17;4.88;;;3.15;;
21330;SDS011;10824;51.632;4.950;2023-05-07T13:40:44;5.68;;;3.22;;
21330;SDS011;10824;51.632;4.950;2023-05-07T13:43:11;6.25;;;3.65;;
21330;SDS011;10824;51.632;4.950;2023-05-07T13:45:38;7.00;;;3.22;;
21330;SDS011;10824;51.632;4.950;2023-05-07T13:48:08;8.40;;;4.07;;
21330;SDS011;10824;51.632;4.950;2023-05-07T13:50:35;6.35;;;3.53;;
21330;SDS011;10824;51.632;4.950;2023-05-07T13:53:02;7.43;;;3.55;;
21330;SDS011;10824;51.632;4.950;2023-05-07T13:55:29;9.40;;;3.78;;
21330;SDS011;10824;51.632;4.950;2023-05-07T13:57:57;7.15;;;3.85;;
21330;SDS011;10824;51.632;4.950;2023-05-07T14:00:25;4.85;;;3.35;;
21330;SDS011;10824;51.632;4.950;2023-05-07T14:02:53;6.03;;;3.05;;
21330;SDS011;10824;51.632;4.950;2023-05-07T14:05:21;6.70;;;3.38;;
21330;SDS011;10824;51.632;4.950;2023-05-07T14:07:54;9.48;;;4.28;;
21330;SDS011;10824;51.632;4.950;2023-05-07T14:10:23;5.75;;;3.42;;
21330;SDS011;10824;51.632;4.950;2023-05-07T14:12:52;6.20;;;3.80;;
21330;SDS011;10824;51.632;4.950;2023-05-07T14:15:19;9.98;;;4.93;;
21330;SDS011;10824;51.632;4.950;2023-05-07T14:17:46;9.02;;;4.63;;
21330;SDS011;10824;51.632;4.950;2023-05-07T14:20:16;6.05;;;3.97;;
21330;SDS011;10824;51.632;4.950;2023-05-07T14:22:43;8.10;;;4.93;;
21330;SDS011;10824;51.632;4.950;2023-05-07T14:25:11;7.72;;;4.32;;
21330;SDS011;10824;51.632;4.950;2023-05-07T14:27:41;9.45;;;4.50;;
21330;SDS011;10824;51.632;4.950;2023-05-07T14:30:10;7.20;;;3.92;;
21330;SDS011;10824;51.632;4.950;2023-05-07T14:32:39;15.63;;;5.00;;
21330;SDS011;10824;51.632;4.950;2023-05-07T14:35:07;9.57;;;5.03;;
21330;SDS011;10824;51.632;4.950;2023-05-07T14:37:34;10.18;;;5.03;;
21330;SDS011;10824;51.632;4.950;2023-05-07T14:40:02;10.60;;;5.40;;
21330;SDS011;10824;51.632;4.950;2023-05-07T14:42:29;9.38;;;5.28;;
21330;SDS011;10824;51.632;4.950;2023-05-07T14:44:56;15.15;;;6.95;;
21330;SDS011;10824;51.632;4.950;2023-05-07T14:47:23;9.40;;;5.20;;
21330;SDS011;10824;51.632;4.950;2023-05-07T14:49:51;10.98;;;5.10;;
21330;SDS011;10824;51.632;4.950;2023-05-07T14:52:19;14.25;;;5.45;;
21330;SDS011;10824;51.632;4.950;2023-05-07T14:54:48;10.80;;;5.38;;
21330;SDS011;10824;51.632;4.950;2023-05-07T14:57:16;11.35;;;6.72;;
21330;SDS011;10824;51.632;4.950;2023-05-07T14:59:44;12.38;;;6.05;;
21330;SDS011;10824;51.632;4.950;2023-05-07T15:02:13;13.93;;;6.07;;
21330;SDS011;10824;51.632;4.950;2023-05-07T15:04:41;13.98;;;5.63;;
21330;SDS011;10824;51.632;4.950;2023-05-07T15:07:12;11.20;;;6.13;;
21330;SDS011;10824;51.632;4.950;2023-05-07T15:09:44;16.67;;;6.63;;
21330;SDS011;10824;51.632;4.950;2023-05-07T15:12:13;13.13;;;6.32;;
21330;SDS011;10824;51.632;4.950;2023-05-07T15:14:40;11.00;;;5.40;;
21330;SDS011;10824;51.632;4.950;2023-05-07T15:17:07;10.48;;;5.15;;